KNPA/NPA METAR and TAF weather

Enter ICAO airport designator
Station Type Date Time Source
KNPA METAR 2018/12/19 09:56 UTC NOAA

KNPA 190956Z AUTO 01003KT 10SM CLR 11/09 A3003 RMK AO2 SLP171 T01060094 $


Station Type Date Time Source
KNPA Decoded METAR 2018/12/19 09:56 UTC NOAA

Pensacola, Naval Air Station, FL, United States (KNPA) 30-21-22N 087-19-24W 10M
Dec 19, 2018 - 04:56 AM EST / 2018.12.19 0956 UTC
Wind: from the N (010 degrees) at 3 MPH (3 KT):0
Visibility: 10 mile(s):0
Sky conditions: clear
Temperature: 51.1 F (10.6 C)
Dew Point: 48.9 F (9.4 C)
Relative Humidity: 92%
Pressure (altimeter): 30.03 in. Hg (1016 hPa)
ob: KNPA 190956Z AUTO 01003KT 10SM CLR 11/09 A3003 RMK AO2 SLP171 T01060094
cycle: 10

Station Type Date Time Source
KNPA TAF 2018/12/19 10:16 UTC NOAA

TAF
AMD KNPA 1910/2007 VRB05KT 9999 BKN170 OVC250 QNH2998INS
FM191600 12007KT 9999 FEW050 BKN120 OVC250 QNH2980INS
FM192000 12010KT 9999 VCSH SCT020 BKN050 OVC120 QNH2975INS
TEMPO 1920/1923 6000 RA BKN020
FM192300 12012KT 6000 RA BR VCTS BKN020CB OVC050 QNH2975INS
TEMPO 2000/2006 VRB15G25KT 3200 TSRA OVC015CB AUTOMATED SENSOR METWATCH 1010 TIL 1912 T10/1913Z T18/1920Z
AMD 1007Z FN20033


Example: see airport list